sensor_id;sensor_type;location;lat;lon;timestamp;P1;durP1;ratioP1;P2;durP2;ratioP2
82475;SDS011;72099;43.176;76.872;2023-11-21T00:03:54;14.52;;;7.57;;
82475;SDS011;72099;43.176;76.872;2023-11-21T00:06:55;10.27;;;5.55;;
82475;SDS011;72099;43.176;76.872;2023-11-21T00:09:56;9.05;;;5.30;;
82475;SDS011;72099;43.176;76.872;2023-11-21T00:12:57;10.48;;;5.93;;
82475;SDS011;72099;43.176;76.872;2023-11-21T00:15:58;7.63;;;4.85;;
82475;SDS011;72099;43.176;76.872;2023-11-21T00:18:59;10.60;;;5.53;;
82475;SDS011;72099;43.176;76.872;2023-11-21T00:21:59;10.70;;;6.40;;
82475;SDS011;72099;43.176;76.872;2023-11-21T00:25:00;8.85;;;6.45;;
82475;SDS011;72099;43.176;76.872;2023-11-21T00:28:01;10.18;;;6.63;;
82475;SDS011;72099;43.176;76.872;2023-11-21T00:31:03;11.88;;;7.40;;
82475;SDS011;72099;43.176;76.872;2023-11-21T00:34:04;10.15;;;6.53;;
82475;SDS011;72099;43.176;76.872;2023-11-21T00:37:05;14.07;;;8.23;;
82475;SDS011;72099;43.176;76.872;2023-11-21T00:40:08;11.95;;;7.93;;
82475;SDS011;72099;43.176;76.872;2023-11-21T00:43:09;13.30;;;7.40;;
82475;SDS011;72099;43.176;76.872;2023-11-21T00:46:10;10.52;;;6.30;;
82475;SDS011;72099;43.176;76.872;2023-11-21T00:52:46;11.43;;;6.22;;
82475;SDS011;72099;43.176;76.872;2023-11-21T00:55:47;11.95;;;6.88;;
82475;SDS011;72099;43.176;76.872;2023-11-21T00:58:48;13.23;;;6.85;;
82475;SDS011;72099;43.176;76.872;2023-11-21T01:01:51;11.68;;;6.10;;
82475;SDS011;72099;43.176;76.872;2023-11-21T01:04:52;11.55;;;6.78;;
82475;SDS011;72099;43.176;76.872;2023-11-21T01:07:53;12.38;;;6.57;;
82475;SDS011;72099;43.176;76.872;2023-11-21T01:10:54;10.13;;;5.57;;
82475;SDS011;72099;43.176;76.872;2023-11-21T01:13:55;8.98;;;5.68;;
82475;SDS011;72099;43.176;76.872;2023-11-21T01:16:55;10.70;;;5.57;;
82475;SDS011;72099;43.176;76.872;2023-11-21T01:19:56;10.05;;;5.32;;
82475;SDS011;72099;43.176;76.872;2023-11-21T01:22:58;12.52;;;6.85;;
82475;SDS011;72099;43.176;76.872;2023-11-21T01:25:58;15.65;;;7.82;;
82475;SDS011;72099;43.176;76.872;2023-11-21T01:28:59;16.55;;;9.38;;
82475;SDS011;72099;43.176;76.872;2023-11-21T01:32:00;11.95;;;7.75;;
82475;SDS011;72099;43.176;76.872;2023-11-21T01:35:02;18.35;;;8.90;;
82475;SDS011;72099;43.176;76.872;2023-11-21T01:38:06;13.90;;;8.13;;
82475;SDS011;72099;43.176;76.872;2023-11-21T01:41:08;14.93;;;7.55;;
82475;SDS011;72099;43.176;76.872;2023-11-21T01:44:11;13.60;;;7.40;;
82475;SDS011;72099;43.176;76.872;2023-11-21T01:47:13;12.73;;;7.45;;
82475;SDS011;72099;43.176;76.872;2023-11-21T01:50:15;14.85;;;7.97;;
82475;SDS011;72099;43.176;76.872;2023-11-21T01:53:17;14.23;;;6.68;;
82475;SDS011;72099;43.176;76.872;2023-11-21T01:56:18;18.50;;;9.65;;
82475;SDS011;72099;43.176;76.872;2023-11-21T02:02:59;18.25;;;10.27;;
82475;SDS011;72099;43.176;76.872;2023-11-21T02:06:00;16.85;;;8.18;;
82475;SDS011;72099;43.176;76.872;2023-11-21T02:09:00;14.57;;;7.75;;
82475;SDS011;72099;43.176;76.872;2023-11-21T02:12:01;14.43;;;7.70;;
82475;SDS011;72099;43.176;76.872;2023-11-21T02:15:02;17.13;;;7.95;;
82475;SDS011;72099;43.176;76.872;2023-11-21T02:18:10;11.20;;;7.35;;
82475;SDS011;72099;43.176;76.872;2023-11-21T02:21:11;16.98;;;7.43;;
82475;SDS011;72099;43.176;76.872;2023-11-21T02:24:12;11.98;;;7.03;;
82475;SDS011;72099;43.176;76.872;2023-11-21T02:27:13;12.32;;;6.97;;
82475;SDS011;72099;43.176;76.872;2023-11-21T02:30:17;12.68;;;6.18;;
82475;SDS011;72099;43.176;76.872;2023-11-21T02:33:18;15.27;;;7.45;;
82475;SDS011;72099;43.176;76.872;2023-11-21T02:36:20;12.95;;;6.70;;
82475;SDS011;72099;43.176;76.872;2023-11-21T02:42:53;25.70;;;11.45;;
82475;SDS011;72099;43.176;76.872;2023-11-21T02:45:54;23.10;;;10.90;;
82475;SDS011;72099;43.176;76.872;2023-11-21T02:48:54;17.08;;;8.88;;
82475;SDS011;72099;43.176;76.872;2023-11-21T02:51:55;31.40;;;10.57;;
82475;SDS011;72099;43.176;76.872;2023-11-21T02:54:56;21.25;;;9.82;;
82475;SDS011;72099;43.176;76.872;2023-11-21T02:57:57;17.15;;;8.27;;
82475;SDS011;72099;43.176;76.872;2023-11-21T03:00:58;25.45;;;7.93;;
82475;SDS011;72099;43.176;76.872;2023-11-21T03:03:59;16.95;;;8.23;;
82475;SDS011;72099;43.176;76.872;2023-11-21T03:07:00;16.02;;;7.40;;
82475;SDS011;72099;43.176;76.872;2023-11-21T03:10:01;14.32;;;7.40;;
82475;SDS011;72099;43.176;76.872;2023-11-21T03:13:01;15.00;;;7.95;;
82475;SDS011;72099;43.176;76.872;2023-11-21T03:16:02;17.95;;;7.57;;
82475;SDS011;72099;43.176;76.872;2023-11-21T03:19:03;13.55;;;7.63;;
82475;SDS011;72099;43.176;76.872;2023-11-21T03:22:05;17.35;;;7.97;;
82475;SDS011;72099;43.176;76.872;2023-11-21T03:25:06;13.00;;;7.38;;
82475;SDS011;72099;43.176;76.872;2023-11-21T03:28:10;14.27;;;7.97;;
82475;SDS011;72099;43.176;76.872;2023-11-21T03:31:11;14.60;;;7.65;;
82475;SDS011;72099;43.176;76.872;2023-11-21T03:34:25;18.80;;;8.45;;
82475;SDS011;72099;43.176;76.872;2023-11-21T03:37:27;29.83;;;9.00;;
82475;SDS011;72099;43.176;76.872;2023-11-21T03:40:27;21.90;;;8.50;;
82475;SDS011;72099;43.176;76.872;2023-11-21T03:43:28;35.38;;;9.68;;
82475;SDS011;72099;43.176;76.872;2023-11-21T03:46:29;18.35;;;8.25;;
82475;SDS011;72099;43.176;76.872;2023-11-21T03:53:03;40.72;;;10.75;;
82475;SDS011;72099;43.176;76.872;2023-11-21T03:56:04;17.35;;;9.13;;
82475;SDS011;72099;43.176;76.872;2023-11-21T03:59:05;26.83;;;9.70;;
82475;SDS011;72099;43.176;76.872;2023-11-21T04:02:06;23.30;;;11.52;;
82475;SDS011;72099;43.176;76.872;2023-11-21T04:08:09;14.25;;;7.72;;
82475;SDS011;72099;43.176;76.872;2023-11-21T04:11:10;17.70;;;8.55;;
82475;SDS011;72099;43.176;76.872;2023-11-21T04:14:12;17.92;;;8.55;;
82475;SDS011;72099;43.176;76.872;2023-11-21T04:17:13;18.70;;;10.18;;
82475;SDS011;72099;43.176;76.872;2023-11-21T04:20:14;17.95;;;10.25;;
82475;SDS011;72099;43.176;76.872;2023-11-21T04:23:15;18.55;;;8.77;;
82475;SDS011;72099;43.176;76.872;2023-11-21T04:26:17;22.75;;;10.20;;
82475;SDS011;72099;43.176;76.872;2023-11-21T04:29:18;23.58;;;11.55;;
82475;SDS011;72099;43.176;76.872;2023-11-21T04:32:19;23.42;;;10.05;;
82475;SDS011;72099;43.176;76.872;2023-11-21T04:35:19;26.83;;;10.82;;
82475;SDS011;72099;43.176;76.872;2023-11-21T04:38:20;22.05;;;10.13;;
82475;SDS011;72099;43.176;76.872;2023-11-21T04:41:21;25.45;;;10.07;;
82475;SDS011;72099;43.176;76.872;2023-11-21T04:44:22;22.88;;;10.30;;
82475;SDS011;72099;43.176;76.872;2023-11-21T04:47:23;20.23;;;9.88;;
82475;SDS011;72099;43.176;76.872;2023-11-21T04:50:24;23.55;;;11.30;;
82475;SDS011;72099;43.176;76.872;2023-11-21T04:53:27;23.27;;;10.55;;
82475;SDS011;72099;43.176;76.872;2023-11-21T04:56:28;28.23;;;12.52;;
82475;SDS011;72099;43.176;76.872;2023-11-21T05:03:02;27.08;;;11.65;;
82475;SDS011;72099;43.176;76.872;2023-11-21T05:06:04;27.08;;;11.98;;
82475;SDS011;72099;43.176;76.872;2023-11-21T05:09:05;25.83;;;11.65;;
82475;SDS011;72099;43.176;76.872;2023-11-21T05:15:07;25.30;;;11.73;;
82475;SDS011;72099;43.176;76.872;2023-11-21T05:18:10;26.42;;;13.05;;
82475;SDS011;72099;43.176;76.872;2023-11-21T05:21:11;33.58;;;13.80;;
82475;SDS011;72099;43.176;76.872;2023-11-21T05:24:13;38.40;;;14.05;;
82475;SDS011;72099;43.176;76.872;2023-11-21T05:27:13;32.15;;;13.75;;
82475;SDS011;72099;43.176;76.872;2023-11-21T05:30:14;32.28;;;13.23;;
82475;SDS011;72099;43.176;76.872;2023-11-21T05:33:15;33.70;;;13.85;;
82475;SDS011;72099;43.176;76.872;2023-11-21T05:36:16;28.35;;;12.48;;
82475;SDS011;72099;43.176;76.872;2023-11-21T05:39:18;28.42;;;12.10;;
82475;SDS011;72099;43.176;76.872;2023-11-21T05:42:19;36.10;;;13.48;;
82475;SDS011;72099;43.176;76.872;2023-11-21T05:45:21;37.60;;;13.90;;
82475;SDS011;72099;43.176;76.872;2023-11-21T05:51:23;39.67;;;16.40;;
82475;SDS011;72099;43.176;76.872;2023-11-21T05:54:25;41.75;;;15.30;;
82475;SDS011;72099;43.176;76.872;2023-11-21T05:57:26;35.50;;;13.52;;
82475;SDS011;72099;43.176;76.872;2023-11-21T06:03:28;29.70;;;13.75;;
82475;SDS011;72099;43.176;76.872;2023-11-21T06:06:29;27.58;;;12.80;;
82475;SDS011;72099;43.176;76.872;2023-11-21T06:13:11;32.63;;;15.02;;
82475;SDS011;72099;43.176;76.872;2023-11-21T06:16:12;29.73;;;13.32;;
82475;SDS011;72099;43.176;76.872;2023-11-21T06:19:16;30.05;;;14.10;;
82475;SDS011;72099;43.176;76.872;2023-11-21T06:22:17;33.13;;;16.60;;
82475;SDS011;72099;43.176;76.872;2023-11-21T06:25:18;41.17;;;18.70;;
82475;SDS011;72099;43.176;76.872;2023-11-21T06:28:19;34.42;;;18.95;;
82475;SDS011;72099;43.176;76.872;2023-11-21T06:31:20;47.90;;;23.05;;
82475;SDS011;72099;43.176;76.872;2023-11-21T06:34:22;41.15;;;20.65;;
82475;SDS011;72099;43.176;76.872;2023-11-21T06:37:23;42.85;;;22.05;;
82475;SDS011;72099;43.176;76.872;2023-11-21T06:40:23;41.45;;;20.92;;
82475;SDS011;72099;43.176;76.872;2023-11-21T06:43:24;42.17;;;22.08;;
82475;SDS011;72099;43.176;76.872;2023-11-21T06:46:27;42.63;;;20.73;;
82475;SDS011;72099;43.176;76.872;2023-11-21T06:49:28;39.55;;;20.10;;
82475;SDS011;72099;43.176;76.872;2023-11-21T06:52:29;39.90;;;20.65;;
82475;SDS011;72099;43.176;76.872;2023-11-21T06:55:30;46.10;;;24.15;;
82475;SDS011;72099;43.176;76.872;2023-11-21T06:58:32;46.35;;;21.15;;
82475;SDS011;72099;43.176;76.872;2023-11-21T07:01:34;43.33;;;19.38;;
82475;SDS011;72099;43.176;76.872;2023-11-21T07:04:39;44.08;;;21.08;;
82475;SDS011;72099;43.176;76.872;2023-11-21T07:07:41;49.13;;;22.23;;
82475;SDS011;72099;43.176;76.872;2023-11-21T07:10:43;50.22;;;21.83;;
82475;SDS011;72099;43.176;76.872;2023-11-21T07:13:44;55.58;;;24.05;;
82475;SDS011;72099;43.176;76.872;2023-11-21T07:16:46;56.60;;;26.60;;
82475;SDS011;72099;43.176;76.872;2023-11-21T07:19:47;56.97;;;27.90;;
82475;SDS011;72099;43.176;76.872;2023-11-21T07:22:49;59.65;;;27.35;;
82475;SDS011;72099;43.176;76.872;2023-11-21T07:25:50;62.15;;;28.48;;
82475;SDS011;72099;43.176;76.872;2023-11-21T07:32:30;60.30;;;27.67;;
82475;SDS011;72099;43.176;76.872;2023-11-21T07:35:31;53.45;;;25.02;;
82475;SDS011;72099;43.176;76.872;2023-11-21T07:38:32;55.80;;;25.35;;
82475;SDS011;72099;43.176;76.872;2023-11-21T07:41:33;63.85;;;26.63;;
82475;SDS011;72099;43.176;76.872;2023-11-21T07:44:34;60.38;;;25.73;;
82475;SDS011;72099;43.176;76.872;2023-11-21T07:47:36;57.22;;;27.25;;
82475;SDS011;72099;43.176;76.872;2023-11-21T07:50:36;58.13;;;27.95;;
82475;SDS011;72099;43.176;76.872;2023-11-21T07:53:37;73.88;;;31.48;;
82475;SDS011;72099;43.176;76.872;2023-11-21T07:56:38;55.90;;;26.75;;
82475;SDS011;72099;43.176;76.872;2023-11-21T07:59:40;62.15;;;28.80;;
82475;SDS011;72099;43.176;76.872;2023-11-21T08:02:41;63.60;;;29.25;;
82475;SDS011;72099;43.176;76.872;2023-11-21T08:05:46;62.30;;;28.00;;
82475;SDS011;72099;43.176;76.872;2023-11-21T08:08:47;62.92;;;30.25;;
82475;SDS011;72099;43.176;76.872;2023-11-21T08:11:48;60.80;;;27.30;;
82475;SDS011;72099;43.176;76.872;2023-11-21T08:14:49;57.17;;;30.20;;
82475;SDS011;72099;43.176;76.872;2023-11-21T08:17:50;60.70;;;30.70;;
82475;SDS011;72099;43.176;76.872;2023-11-21T08:20:51;58.50;;;29.08;;
82475;SDS011;72099;43.176;76.872;2023-11-21T08:23:52;61.10;;;27.75;;
82475;SDS011;72099;43.176;76.872;2023-11-21T08:26:54;59.90;;;29.85;;
82475;SDS011;72099;43.176;76.872;2023-11-21T08:29:55;63.63;;;30.08;;
82475;SDS011;72099;43.176;76.872;2023-11-21T08:32:57;62.55;;;29.05;;
82475;SDS011;72099;43.176;76.872;2023-11-21T08:35:58;62.38;;;27.45;;
82475;SDS011;72099;43.176;76.872;2023-11-21T08:42:39;51.67;;;25.60;;
82475;SDS011;72099;43.176;76.872;2023-11-21T08:45:40;45.72;;;22.73;;
82475;SDS011;72099;43.176;76.872;2023-11-21T08:52:17;52.35;;;24.98;;
82475;SDS011;72099;43.176;76.872;2023-11-21T08:55:18;48.33;;;22.52;;
82475;SDS011;72099;43.176;76.872;2023-11-21T08:58:20;42.25;;;21.42;;
82475;SDS011;72099;43.176;76.872;2023-11-21T09:01:22;43.80;;;21.85;;
82475;SDS011;72099;43.176;76.872;2023-11-21T09:04:24;44.28;;;22.90;;
82475;SDS011;72099;43.176;76.872;2023-11-21T09:07:24;49.75;;;22.77;;
82475;SDS011;72099;43.176;76.872;2023-11-21T09:10:25;45.17;;;21.58;;
82475;SDS011;72099;43.176;76.872;2023-11-21T09:13:28;41.20;;;20.75;;
82475;SDS011;72099;43.176;76.872;2023-11-21T09:16:29;35.17;;;19.55;;
82475;SDS011;72099;43.176;76.872;2023-11-21T09:19:31;39.35;;;19.73;;
82475;SDS011;72099;43.176;76.872;2023-11-21T09:22:32;34.25;;;18.42;;
82475;SDS011;72099;43.176;76.872;2023-11-21T09:25:34;39.35;;;20.52;;
82475;SDS011;72099;43.176;76.872;2023-11-21T09:28:35;36.13;;;18.95;;
82475;SDS011;72099;43.176;76.872;2023-11-21T09:31:37;41.63;;;19.20;;
82475;SDS011;72099;43.176;76.872;2023-11-21T09:34:38;38.25;;;19.30;;
82475;SDS011;72099;43.176;76.872;2023-11-21T09:37:39;40.42;;;19.17;;
82475;SDS011;72099;43.176;76.872;2023-11-21T09:40:40;38.08;;;19.25;;
82475;SDS011;72099;43.176;76.872;2023-11-21T09:43:41;38.10;;;19.95;;
82475;SDS011;72099;43.176;76.872;2023-11-21T09:46:42;38.28;;;18.27;;
82475;SDS011;72099;43.176;76.872;2023-11-21T09:49:47;39.78;;;19.70;;
82475;SDS011;72099;43.176;76.872;2023-11-21T09:56:11;37.33;;;18.95;;
82475;SDS011;72099;43.176;76.872;2023-11-21T09:59:15;39.58;;;18.30;;
82475;SDS011;72099;43.176;76.872;2023-11-21T10:02:16;34.92;;;17.70;;
82475;SDS011;72099;43.176;76.872;2023-11-21T10:05:18;40.05;;;17.83;;
82475;SDS011;72099;43.176;76.872;2023-11-21T10:08:22;38.75;;;17.52;;
82475;SDS011;72099;43.176;76.872;2023-11-21T10:11:25;43.08;;;17.65;;
82475;SDS011;72099;43.176;76.872;2023-11-21T10:14:27;38.05;;;17.52;;
82475;SDS011;72099;43.176;76.872;2023-11-21T10:17:29;41.90;;;18.50;;
82475;SDS011;72099;43.176;76.872;2023-11-21T10:20:39;39.72;;;18.25;;
82475;SDS011;72099;43.176;76.872;2023-11-21T10:26:40;36.30;;;17.05;;
82475;SDS011;72099;43.176;76.872;2023-11-21T10:32:42;41.50;;;18.40;;
82475;SDS011;72099;43.176;76.872;2023-11-21T10:38:54;36.95;;;17.10;;
82475;SDS011;72099;43.176;76.872;2023-11-21T10:41:57;40.53;;;16.35;;
82475;SDS011;72099;43.176;76.872;2023-11-21T10:44:58;39.88;;;17.05;;
82475;SDS011;72099;43.176;76.872;2023-11-21T10:51:32;40.80;;;15.82;;
82475;SDS011;72099;43.176;76.872;2023-11-21T10:54:32;37.65;;;17.30;;
82475;SDS011;72099;43.176;76.872;2023-11-21T11:00:34;40.10;;;17.52;;
82475;SDS011;72099;43.176;76.872;2023-11-21T11:06:36;39.30;;;16.70;;
82475;SDS011;72099;43.176;76.872;2023-11-21T11:09:39;41.25;;;16.20;;
82475;SDS011;72099;43.176;76.872;2023-11-21T11:12:43;42.63;;;17.60;;
82475;SDS011;72099;43.176;76.872;2023-11-21T11:15:48;43.15;;;18.23;;
82475;SDS011;72099;43.176;76.872;2023-11-21T11:35:11;50.72;;;22.60;;
82475;SDS011;72099;43.176;76.872;2023-11-21T11:38:22;48.88;;;19.63;;
82475;SDS011;72099;43.176;76.872;2023-11-21T11:41:26;47.10;;;22.45;;
82475;SDS011;72099;43.176;76.872;2023-11-21T11:47:47;48.00;;;22.70;;
82475;SDS011;72099;43.176;76.872;2023-11-21T11:51:01;48.03;;;22.77;;
82475;SDS011;72099;43.176;76.872;2023-11-21T11:54:08;57.42;;;25.75;;
82475;SDS011;72099;43.176;76.872;2023-11-21T11:57:11;54.55;;;22.98;;
82475;SDS011;72099;43.176;76.872;2023-11-21T12:00:14;52.42;;;23.75;;
82475;SDS011;72099;43.176;76.872;2023-11-21T12:03:25;48.22;;;21.83;;
82475;SDS011;72099;43.176;76.872;2023-11-21T12:06:35;53.55;;;23.27;;
82475;SDS011;72099;43.176;76.872;2023-11-21T12:09:36;63.70;;;26.20;;
82475;SDS011;72099;43.176;76.872;2023-11-21T12:12:37;60.30;;;24.90;;
82475;SDS011;72099;43.176;76.872;2023-11-21T12:15:42;60.38;;;26.00;;
82475;SDS011;72099;43.176;76.872;2023-11-21T12:18:43;61.78;;;25.73;;
82475;SDS011;72099;43.176;76.872;2023-11-21T12:21:43;53.33;;;25.83;;
82475;SDS011;72099;43.176;76.872;2023-11-21T12:24:44;57.70;;;23.25;;
82475;SDS011;72099;43.176;76.872;2023-11-21T12:27:46;48.03;;;23.75;;
82475;SDS011;72099;43.176;76.872;2023-11-21T12:30:49;58.08;;;23.60;;
82475;SDS011;72099;43.176;76.872;2023-11-21T12:33:50;52.53;;;22.45;;
82475;SDS011;72099;43.176;76.872;2023-11-21T12:36:52;51.08;;;22.92;;
82475;SDS011;72099;43.176;76.872;2023-11-21T12:39:54;52.60;;;22.70;;
82475;SDS011;72099;43.176;76.872;2023-11-21T12:42:58;58.90;;;24.25;;
82475;SDS011;72099;43.176;76.872;2023-11-21T12:46:10;48.80;;;22.60;;
82475;SDS011;72099;43.176;76.872;2023-11-21T12:49:13;46.75;;;21.90;;
82475;SDS011;72099;43.176;76.872;2023-11-21T12:52:17;50.45;;;22.88;;
82475;SDS011;72099;43.176;76.872;2023-11-21T12:55:18;50.83;;;22.30;;
82475;SDS011;72099;43.176;76.872;2023-11-21T12:58:23;50.72;;;20.38;;
82475;SDS011;72099;43.176;76.872;2023-11-21T13:01:26;53.40;;;23.90;;
82475;SDS011;72099;43.176;76.872;2023-11-21T13:04:32;52.83;;;24.05;;
82475;SDS011;72099;43.176;76.872;2023-11-21T13:07:41;50.30;;;21.92;;
82475;SDS011;72099;43.176;76.872;2023-11-21T13:10:48;57.40;;;27.55;;
82475;SDS011;72099;43.176;76.872;2023-11-21T13:13:51;65.07;;;29.58;;
82475;SDS011;72099;43.176;76.872;2023-11-21T13:16:56;61.25;;;28.08;;
82475;SDS011;72099;43.176;76.872;2023-11-21T13:19:57;57.20;;;26.80;;
82475;SDS011;72099;43.176;76.872;2023-11-21T13:22:58;54.33;;;26.50;;
82475;SDS011;72099;43.176;76.872;2023-11-21T13:26:01;49.67;;;25.08;;
82475;SDS011;72099;43.176;76.872;2023-11-21T13:29:04;50.60;;;24.25;;
82475;SDS011;72099;43.176;76.872;2023-11-21T13:32:05;53.58;;;23.08;;
82475;SDS011;72099;43.176;76.872;2023-11-21T13:35:07;50.92;;;24.67;;
82475;SDS011;72099;43.176;76.872;2023-11-21T13:38:16;41.17;;;18.73;;
82475;SDS011;72099;43.176;76.872;2023-11-21T13:41:18;36.53;;;18.17;;
82475;SDS011;72099;43.176;76.872;2023-11-21T13:44:20;40.65;;;19.85;;
82475;SDS011;72099;43.176;76.872;2023-11-21T13:47:29;46.13;;;19.85;;
82475;SDS011;72099;43.176;76.872;2023-11-21T13:50:31;45.92;;;19.55;;
82475;SDS011;72099;43.176;76.872;2023-11-21T13:53:36;43.67;;;19.67;;
82475;SDS011;72099;43.176;76.872;2023-11-21T13:56:39;42.10;;;19.88;;
82475;SDS011;72099;43.176;76.872;2023-11-21T13:59:41;51.13;;;19.38;;
82475;SDS011;72099;43.176;76.872;2023-11-21T14:02:44;42.60;;;19.55;;
82475;SDS011;72099;43.176;76.872;2023-11-21T14:05:45;44.03;;;20.90;;
82475;SDS011;72099;43.176;76.872;2023-11-21T14:08:52;44.30;;;21.20;;
82475;SDS011;72099;43.176;76.872;2023-11-21T14:11:57;39.08;;;19.88;;
82475;SDS011;72099;43.176;76.872;2023-11-21T14:14:58;43.00;;;20.58;;
82475;SDS011;72099;43.176;76.872;2023-11-21T14:17:59;41.30;;;19.38;;
82475;SDS011;72099;43.176;76.872;2023-11-21T14:21:07;43.88;;;21.70;;
82475;SDS011;72099;43.176;76.872;2023-11-21T14:24:11;36.65;;;18.77;;
82475;SDS011;72099;43.176;76.872;2023-11-21T14:27:18;39.78;;;16.60;;
82475;SDS011;72099;43.176;76.872;2023-11-21T14:30:19;34.70;;;17.30;;
82475;SDS011;72099;43.176;76.872;2023-11-21T14:33:22;31.90;;;15.65;;
82475;SDS011;72099;43.176;76.872;2023-11-21T14:36:23;36.53;;;17.33;;
82475;SDS011;72099;43.176;76.872;2023-11-21T14:42:57;34.65;;;15.65;;
82475;SDS011;72099;43.176;76.872;2023-11-21T14:45:59;42.92;;;18.52;;
82475;SDS011;72099;43.176;76.872;2023-11-21T14:52:27;34.92;;;17.27;;
82475;SDS011;72099;43.176;76.872;2023-11-21T14:55:35;32.08;;;16.70;;
82475;SDS011;72099;43.176;76.872;2023-11-21T14:58:38;36.22;;;15.80;;
82475;SDS011;72099;43.176;76.872;2023-11-21T15:01:40;28.17;;;12.55;;
82475;SDS011;72099;43.176;76.872;2023-11-21T15:04:55;31.40;;;14.95;;
82475;SDS011;72099;43.176;76.872;2023-11-21T15:08:02;25.33;;;12.27;;
82475;SDS011;72099;43.176;76.872;2023-11-21T15:11:20;25.85;;;12.52;;
82475;SDS011;72099;43.176;76.872;2023-11-21T15:14:25;27.70;;;13.60;;
82475;SDS011;72099;43.176;76.872;2023-11-21T15:17:31;26.33;;;12.98;;
82475;SDS011;72099;43.176;76.872;2023-11-21T15:20:32;30.05;;;14.45;;
82475;SDS011;72099;43.176;76.872;2023-11-21T15:23:33;29.60;;;12.77;;
82475;SDS011;72099;43.176;76.872;2023-11-21T15:26:35;25.65;;;12.77;;
82475;SDS011;72099;43.176;76.872;2023-11-21T15:33:03;24.05;;;12.65;;
82475;SDS011;72099;43.176;76.872;2023-11-21T15:36:04;26.55;;;13.02;;
82475;SDS011;72099;43.176;76.872;2023-11-21T15:39:09;25.38;;;10.52;;
82475;SDS011;72099;43.176;76.872;2023-11-21T15:42:10;22.60;;;12.40;;
82475;SDS011;72099;43.176;76.872;2023-11-21T15:45:12;27.67;;;13.73;;
82475;SDS011;72099;43.176;76.872;2023-11-21T15:48:30;21.60;;;10.90;;
82475;SDS011;72099;43.176;76.872;2023-11-21T15:51:31;23.02;;;12.65;;
82475;SDS011;72099;43.176;76.872;2023-11-21T15:54:32;27.25;;;10.93;;
82475;SDS011;72099;43.176;76.872;2023-11-21T15:57:34;24.90;;;11.63;;
82475;SDS011;72099;43.176;76.872;2023-11-21T16:00:35;26.35;;;12.32;;
82475;SDS011;72099;43.176;76.872;2023-11-21T16:03:37;22.58;;;10.43;;
82475;SDS011;72099;43.176;76.872;2023-11-21T16:06:38;23.83;;;11.68;;
82475;SDS011;72099;43.176;76.872;2023-11-21T16:09:39;21.73;;;11.30;;
82475;SDS011;72099;43.176;76.872;2023-11-21T16:12:43;23.75;;;12.55;;
82475;SDS011;72099;43.176;76.872;2023-11-21T16:15:43;24.00;;;10.50;;
82475;SDS011;72099;43.176;76.872;2023-11-21T16:18:44;22.80;;;11.85;;
82475;SDS011;72099;43.176;76.872;2023-11-21T16:21:46;24.88;;;10.52;;
82475;SDS011;72099;43.176;76.872;2023-11-21T16:24:47;25.67;;;11.90;;
82475;SDS011;72099;43.176;76.872;2023-11-21T16:27:48;22.27;;;11.68;;
82475;SDS011;72099;43.176;76.872;2023-11-21T16:30:49;19.38;;;9.43;;
82475;SDS011;72099;43.176;76.872;2023-11-21T16:33:51;18.48;;;9.55;;
82475;SDS011;72099;43.176;76.872;2023-11-21T16:36:52;22.02;;;9.70;;
82475;SDS011;72099;43.176;76.872;2023-11-21T16:39:52;23.83;;;9.25;;
82475;SDS011;72099;43.176;76.872;2023-11-21T16:42:54;21.45;;;9.50;;
82475;SDS011;72099;43.176;76.872;2023-11-21T16:45:55;25.38;;;11.82;;
82475;SDS011;72099;43.176;76.872;2023-11-21T16:52:21;23.67;;;10.23;;
82475;SDS011;72099;43.176;76.872;2023-11-21T16:58:23;19.15;;;9.63;;
82475;SDS011;72099;43.176;76.872;2023-11-21T17:01:25;21.67;;;9.98;;
82475;SDS011;72099;43.176;76.872;2023-11-21T17:04:29;18.42;;;8.73;;
82475;SDS011;72099;43.176;76.872;2023-11-21T17:14:07;17.40;;;8.57;;
82475;SDS011;72099;43.176;76.872;2023-11-21T17:17:09;16.77;;;7.43;;
82475;SDS011;72099;43.176;76.872;2023-11-21T17:20:13;18.95;;;9.23;;
82475;SDS011;72099;43.176;76.872;2023-11-21T17:23:15;15.95;;;8.02;;
82475;SDS011;72099;43.176;76.872;2023-11-21T17:26:16;18.77;;;8.38;;
82475;SDS011;72099;43.176;76.872;2023-11-21T17:29:17;19.80;;;8.95;;
82475;SDS011;72099;43.176;76.872;2023-11-21T17:32:17;22.55;;;9.65;;
82475;SDS011;72099;43.176;76.872;2023-11-21T17:35:18;22.77;;;9.70;;
82475;SDS011;72099;43.176;76.872;2023-11-21T17:38:20;28.50;;;11.05;;
82475;SDS011;72099;43.176;76.872;2023-11-21T17:41:21;27.55;;;11.75;;
82475;SDS011;72099;43.176;76.872;2023-11-21T17:44:22;26.73;;;10.30;;
82475;SDS011;72099;43.176;76.872;2023-11-21T17:47:23;24.50;;;9.63;;
82475;SDS011;72099;43.176;76.872;2023-11-21T17:50:25;23.88;;;9.90;;
82475;SDS011;72099;43.176;76.872;2023-11-21T17:53:26;22.73;;;10.05;;
82475;SDS011;72099;43.176;76.872;2023-11-21T17:56:27;21.60;;;9.88;;
82475;SDS011;72099;43.176;76.872;2023-11-21T17:59:29;19.60;;;9.07;;
82475;SDS011;72099;43.176;76.872;2023-11-21T18:02:31;17.08;;;8.32;;
82475;SDS011;72099;43.176;76.872;2023-11-21T18:05:32;22.88;;;8.23;;
82475;SDS011;72099;43.176;76.872;2023-11-21T18:08:33;21.30;;;7.68;;
82475;SDS011;72099;43.176;76.872;2023-11-21T18:11:36;13.38;;;6.22;;
82475;SDS011;72099;43.176;76.872;2023-11-21T18:14:38;16.98;;;7.32;;
82475;SDS011;72099;43.176;76.872;2023-11-21T18:17:40;13.70;;;6.10;;
82475;SDS011;72099;43.176;76.872;2023-11-21T18:20:41;14.00;;;6.63;;
82475;SDS011;72099;43.176;76.872;2023-11-21T18:23:43;14.15;;;6.78;;
82475;SDS011;72099;43.176;76.872;2023-11-21T18:26:45;12.07;;;5.78;;
82475;SDS011;72099;43.176;76.872;2023-11-21T18:29:46;13.90;;;6.47;;
82475;SDS011;72099;43.176;76.872;2023-11-21T18:32:48;12.18;;;5.88;;
82475;SDS011;72099;43.176;76.872;2023-11-21T18:35:49;14.30;;;5.85;;
82475;SDS011;72099;43.176;76.872;2023-11-21T18:38:50;14.98;;;6.38;;
82475;SDS011;72099;43.176;76.872;2023-11-21T18:41:51;13.85;;;6.22;;
82475;SDS011;72099;43.176;76.872;2023-11-21T18:44:52;12.75;;;6.00;;
82475;SDS011;72099;43.176;76.872;2023-11-21T18:47:53;11.57;;;5.57;;
82475;SDS011;72099;43.176;76.872;2023-11-21T18:50:54;8.95;;;4.47;;
82475;SDS011;72099;43.176;76.872;2023-11-21T18:53:55;10.65;;;5.15;;
82475;SDS011;72099;43.176;76.872;2023-11-21T18:56:55;8.18;;;4.90;;
82475;SDS011;72099;43.176;76.872;2023-11-21T18:59:56;10.35;;;3.95;;
82475;SDS011;72099;43.176;76.872;2023-11-21T19:02:57;7.65;;;3.75;;
82475;SDS011;72099;43.176;76.872;2023-11-21T19:12:30;6.82;;;3.55;;
82475;SDS011;72099;43.176;76.872;2023-11-21T19:15:31;9.00;;;4.47;;
82475;SDS011;72099;43.176;76.872;2023-11-21T19:18:32;6.68;;;4.18;;
82475;SDS011;72099;43.176;76.872;2023-11-21T19:21:33;7.93;;;4.05;;
82475;SDS011;72099;43.176;76.872;2023-11-21T19:24:34;6.43;;;3.67;;
82475;SDS011;72099;43.176;76.872;2023-11-21T19:27:35;8.20;;;3.95;;
82475;SDS011;72099;43.176;76.872;2023-11-21T19:30:36;6.53;;;3.65;;
82475;SDS011;72099;43.176;76.872;2023-11-21T19:33:40;8.88;;;3.90;;